createdAt,value
2017-08-05T00:00:40.053Z,90.63
2017-08-05T00:01:40.064Z,90.44
2017-08-05T00:02:40.054Z,90.72
2017-08-05T00:03:40.038Z,90.86
2017-08-05T00:04:40.634Z,91.05
2017-08-05T00:05:40.141Z,91.3
2017-08-05T00:06:40.028Z,91.39
2017-08-05T00:07:40.033Z,92.06
2017-08-05T00:08:40.528Z,91.87
2017-08-05T00:09:39.696Z,92.54
2017-08-05T00:10:40.013Z,92.06
2017-08-05T00:11:39.687Z,92.06
2017-08-05T00:12:40.020Z,91.77
2017-08-05T00:13:40.213Z,91.97
2017-08-05T00:14:39.997Z,91.87
2017-08-05T00:15:40.019Z,92.44
2017-08-05T00:16:39.671Z,92.06
2017-08-05T00:17:40.466Z,92.25
2017-08-05T00:18:39.794Z,92.16
2017-08-05T00:19:39.977Z,92.44
2017-08-05T00:20:39.983Z,91.87
2017-08-05T00:21:39.970Z,92.06
2017-08-05T00:22:40.429Z,91.87
2017-08-05T00:23:39.650Z,92.44
2017-08-05T00:24:39.969Z,92.44
2017-08-05T00:25:39.785Z,92.16
2017-08-05T00:26:40.286Z,92.63
2017-08-05T00:27:39.625Z,92.54
2017-08-05T00:28:39.646Z,92.83
2017-08-05T00:29:39.939Z,93.12
2017-08-05T00:30:40.029Z,93.4
2017-08-05T00:31:39.932Z,93.88
2017-08-05T00:32:39.929Z,93.5
2017-08-05T00:33:39.679Z,93.4
2017-08-05T00:34:39.918Z,93.5
2017-08-05T00:35:39.968Z,93.55
2017-08-05T00:36:39.910Z,94.41
2017-08-05T00:37:40.563Z,93.98
2017-08-05T00:38:39.582Z,93.74
2017-08-05T00:39:39.574Z,93.4
2017-08-05T00:40:39.591Z,93.59
2017-08-05T00:41:39.889Z,93.4
2017-08-05T00:42:39.895Z,93.79
2017-08-05T00:43:40.590Z,93.79
2017-08-05T00:44:40.035Z,93.3
2017-08-05T00:45:39.894Z,93.4
2017-08-05T00:46:39.885Z,93.79
2017-08-05T00:47:39.869Z,93.88
2017-08-05T00:48:39.865Z,93.4
2017-08-05T00:49:39.942Z,93.3
2017-08-05T00:50:39.853Z,93.59
2017-08-05T00:51:39.916Z,93.93
2017-08-05T00:52:39.521Z,94.02
2017-08-05T00:53:39.519Z,93.59
2017-08-05T00:54:39.958Z,93.59
2017-08-05T00:55:39.511Z,94.17
2017-08-05T00:56:39.965Z,94.5
2017-08-05T00:57:39.824Z,94.21
2017-08-05T00:58:39.823Z,93.93
2017-08-05T00:59:39.815Z,93.84
2017-08-05T01:00:39.810Z,93.93
2017-08-05T01:01:39.811Z,93.79
2017-08-05T01:02:39.804Z,93.93
2017-08-05T01:03:40.199Z,94.5
2017-08-05T01:04:39.794Z,94.12
2017-08-05T01:05:39.525Z,94.12
2017-08-05T01:06:39.788Z,94.12
2017-08-05T01:07:39.460Z,94.6
2017-08-05T01:08:39.795Z,95.65
2017-08-05T01:09:39.452Z,95.94
2017-08-05T01:10:40.347Z,96.22
2017-08-05T01:11:39.887Z,96.13
2017-08-05T01:12:39.761Z,96.32
2017-08-05T01:13:39.755Z,96.32
2017-08-05T01:14:39.752Z,97.28
2017-08-05T01:15:39.439Z,96.7
2017-08-05T01:16:39.420Z,96.7
2017-08-05T01:17:39.428Z,96.7
2017-08-05T01:18:39.737Z,97.08
2017-08-05T01:19:40.253Z,97.37
2017-08-05T01:20:39.881Z,96.99
2017-08-05T01:21:39.415Z,97.56
2017-08-05T01:22:39.718Z,97.56
2017-08-05T01:23:39.732Z,97.56
2017-08-05T01:24:40.380Z,97.95
2017-08-05T01:25:40.232Z,98.43
2017-08-05T01:26:39.700Z,99.48
2017-08-05T01:27:40.003Z,99.99
2017-08-05T01:28:39.377Z,99.48
2017-08-05T01:29:39.365Z,99
2017-08-05T01:30:39.362Z,98.57
2017-08-05T01:31:39.639Z,98.9
2017-08-05T01:32:39.831Z,99
2017-08-05T01:33:39.669Z,99.48
2017-08-05T01:34:39.352Z,99.62
2017-08-05T01:35:39.346Z,99.62
2017-08-05T01:36:39.656Z,99.99
2017-08-05T01:37:40.181Z,99.99
2017-08-05T01:38:39.726Z,99.99
2017-08-05T01:39:39.322Z,99.99
2017-08-05T01:40:39.340Z,99.99
2017-08-05T01:41:39.637Z,99.99
2017-08-05T01:42:39.645Z,99.99
2017-08-05T01:43:39.625Z,99.99
2017-08-05T01:44:40.190Z,99.99
2017-08-05T01:45:39.622Z,99.99
2017-08-05T01:46:39.612Z,99.99
2017-08-05T01:47:39.611Z,99.99
2017-08-05T01:48:40.081Z,99.99
2017-08-05T01:49:39.278Z,99.99
2017-08-05T01:50:39.721Z,99.99
2017-08-05T01:51:39.589Z,99.71
2017-08-05T01:52:39.602Z,99.48
2017-08-05T01:53:39.585Z,99
2017-08-05T01:54:40.041Z,98.43
2017-08-05T01:55:40.029Z,98.43
2017-08-05T01:56:39.569Z,98.14
2017-08-05T01:57:39.575Z,98.81
2017-08-05T01:58:39.583Z,98.33
2017-08-05T01:59:39.288Z,98.04
2017-08-05T02:00:39.554Z,98.43
2017-08-05T02:01:40.056Z,98.52
2017-08-05T02:02:39.670Z,98.43
2017-08-05T02:03:39.535Z,98.28
2017-08-05T02:04:39.211Z,98.85
2017-08-05T02:05:39.217Z,98.75
2017-08-05T02:06:39.524Z,98.57
2017-08-05T02:07:40.118Z,98.66
2017-08-05T02:08:39.513Z,99.43
2017-08-05T02:09:39.641Z,99.99
2017-08-05T02:10:39.186Z,99.99
2017-08-05T02:11:39.520Z,99.99
2017-08-05T02:12:39.497Z,99.99
2017-08-05T02:13:39.489Z,99.99
2017-08-05T02:14:39.483Z,99.99
2017-08-05T02:15:39.479Z,99.99
2017-08-05T02:16:39.486Z,99.99
2017-08-05T02:17:39.472Z,99.99
2017-08-05T02:18:39.153Z,99.99
2017-08-05T02:19:39.139Z,99.99
2017-08-05T02:20:39.459Z,99.99
2017-08-05T02:21:39.133Z,99.99
2017-08-05T02:22:39.447Z,99.99
2017-08-05T02:23:39.145Z,99.99
2017-08-05T02:24:39.115Z,99.99
2017-08-05T02:25:39.432Z,99.99
2017-08-05T02:26:39.457Z,99.99
2017-08-05T02:27:39.623Z,99.99
2017-08-05T02:28:39.421Z,99.99
2017-08-05T02:29:39.095Z,99.99
2017-08-05T02:30:39.421Z,99.99
2017-08-05T02:31:39.406Z,99.99
2017-08-05T02:32:39.403Z,99.99
2017-08-05T02:33:39.409Z,99.99
2017-08-05T02:34:39.416Z,99.99
2017-08-05T02:35:39.386Z,99.99
2017-08-05T02:36:39.384Z,99.99
2017-08-05T02:37:39.378Z,99.99
2017-08-05T02:38:39.372Z,99.99
2017-08-05T02:39:39.368Z,99.99
2017-08-05T02:40:39.382Z,99.99
2017-08-05T02:41:39.036Z,99.99
2017-08-05T02:42:39.366Z,99.99
2017-08-05T02:43:39.367Z,99.99
2017-08-05T02:44:39.341Z,99.99
2017-08-05T02:45:39.019Z,99.99
2017-08-05T02:46:39.022Z,99.99
2017-08-05T02:47:39.328Z,99.99
2017-08-05T02:48:39.327Z,99.99
2017-08-05T02:49:39.320Z,99.99
2017-08-05T02:50:39.318Z,99.99
2017-08-05T02:51:38.987Z,99.99
2017-08-05T02:52:39.302Z,99.99
2017-08-05T02:53:38.994Z,99.99
2017-08-05T02:54:39.300Z,99.99
2017-08-05T02:55:39.302Z,99.99
2017-08-05T02:56:38.965Z,99.99
2017-08-05T02:57:39.304Z,99.99
2017-08-05T02:58:39.275Z,99.99
2017-08-05T02:59:39.276Z,99.99
2017-08-05T03:00:38.959Z,99.99
2017-08-05T03:01:39.259Z,99.99
2017-08-05T03:02:39.253Z,99.99
2017-08-05T03:03:38.929Z,99.99
2017-08-05T03:04:39.268Z,99.99
2017-08-05T03:05:38.920Z,99.99
2017-08-05T03:06:39.253Z,99.99
2017-08-05T03:07:38.909Z,99.99
2017-08-05T03:08:39.228Z,99.99
2017-08-05T03:09:39.231Z,99.99
2017-08-05T03:10:39.216Z,99.99
2017-08-05T03:11:39.211Z,99.99
2017-08-05T03:12:39.206Z,99.99
2017-08-05T03:13:38.881Z,99.99
2017-08-05T03:14:39.200Z,99.99
2017-08-05T03:15:39.567Z,99.99
2017-08-05T03:16:39.184Z,99.99
2017-08-05T03:17:39.186Z,99.99
2017-08-05T03:18:39.177Z,99.99
2017-08-05T03:19:39.199Z,99.99
2017-08-05T03:20:38.846Z,99.99
2017-08-05T03:21:38.845Z,99.99
2017-08-05T03:22:39.172Z,99.99
2017-08-05T03:23:39.150Z,99.99
2017-08-05T03:24:38.826Z,99.99
2017-08-05T03:25:39.146Z,99.99
2017-08-05T03:26:39.136Z,99.99
2017-08-05T03:27:39.133Z,99.99
2017-08-05T03:28:39.142Z,99.99
2017-08-05T03:29:38.800Z,99.99
2017-08-05T03:30:38.795Z,99.99
2017-08-05T03:31:39.109Z,99.99
2017-08-05T03:32:39.125Z,99.99
2017-08-05T03:33:38.799Z,99.99
2017-08-05T03:34:39.095Z,99.99
2017-08-05T03:35:39.092Z,99.99
2017-08-05T03:36:39.090Z,99.99
2017-08-05T03:37:39.092Z,99.99
2017-08-05T03:38:39.074Z,99.99
2017-08-05T03:39:39.119Z,99.99
2017-08-05T03:40:39.068Z,99.99
2017-08-05T03:41:39.057Z,99.99
2017-08-05T03:42:39.052Z,99.99
2017-08-05T03:43:39.047Z,99.99
2017-08-05T03:44:39.040Z,99.99
2017-08-05T03:45:38.735Z,99.99
2017-08-05T03:46:38.716Z,99.99
2017-08-05T03:47:38.713Z,99.99
2017-08-05T03:48:39.025Z,99.99
2017-08-05T03:49:39.028Z,99.99
2017-08-05T03:50:39.018Z,99.99
2017-08-05T03:51:39.025Z,99.99
2017-08-05T03:52:38.998Z,99.99
2017-08-05T03:53:39.006Z,99.99
2017-08-05T03:54:39.008Z,99.99
2017-08-05T03:55:38.996Z,99.99
2017-08-05T03:56:38.656Z,99.99
2017-08-05T03:57:38.649Z,99.99
2017-08-05T03:58:38.969Z,99.99
2017-08-05T03:59:39.023Z,99.99
2017-08-05T04:00:38.953Z,99.99
2017-08-05T04:01:38.626Z,99.99
2017-08-05T04:02:38.949Z,99.99
2017-08-05T04:03:38.619Z,99.99
2017-08-05T04:04:38.971Z,99.99
2017-08-05T04:05:38.608Z,99.99
2017-08-05T04:06:38.945Z,99.99
2017-08-05T04:07:38.916Z,99.99
2017-08-05T04:08:38.590Z,99.99
2017-08-05T04:09:38.941Z,99.99
2017-08-05T04:10:38.601Z,99.99
2017-08-05T04:11:38.910Z,99.99
2017-08-05T04:12:38.888Z,99.99
2017-08-05T04:13:38.923Z,99.99
2017-08-05T04:14:38.877Z,99.99
2017-08-05T04:15:38.550Z,99.99
2017-08-05T04:16:38.907Z,99.99
2017-08-05T04:17:38.548Z,99.99
2017-08-05T04:18:38.554Z,99.99
2017-08-05T04:19:38.533Z,99.99
2017-08-05T04:20:38.861Z,99.99
2017-08-05T04:21:38.839Z,99.99
2017-08-05T04:22:38.835Z,99.99
2017-08-05T04:23:38.828Z,99.99
2017-08-05T04:24:38.502Z,99.99
2017-08-05T04:25:38.498Z,99.99
2017-08-05T04:26:38.508Z,99.99
2017-08-05T04:27:38.812Z,99.99
2017-08-05T04:28:38.480Z,99.99
2017-08-05T04:29:38.796Z,99.99
2017-08-05T04:30:38.788Z,99.99
2017-08-05T04:31:38.790Z,99.99
2017-08-05T04:32:38.780Z,99.99
2017-08-05T04:33:38.450Z,99.99
2017-08-05T04:34:38.452Z,99.99
2017-08-05T04:35:38.772Z,99.99
2017-08-05T04:36:38.436Z,99.99
2017-08-05T04:37:38.750Z,99.99
2017-08-05T04:38:38.767Z,99.99
2017-08-05T04:39:38.437Z,99.99
2017-08-05T04:40:38.743Z,99.99
2017-08-05T04:41:38.748Z,99.99
2017-08-05T04:42:38.404Z,99.99
2017-08-05T04:43:38.721Z,99.99
2017-08-05T04:44:38.407Z,99.99
2017-08-05T04:45:38.711Z,99.99
2017-08-05T04:46:38.382Z,99.99
2017-08-05T04:47:38.375Z,99.99
2017-08-05T04:48:38.706Z,99.99
2017-08-05T04:49:38.689Z,99.99
2017-08-05T04:50:38.680Z,99.99
2017-08-05T04:51:38.676Z,99.99
2017-08-05T04:52:38.677Z,99.99
2017-08-05T04:53:38.671Z,99.99
2017-08-05T04:54:38.662Z,99.99
2017-08-05T04:55:38.664Z,99.99
2017-08-05T04:56:38.655Z,99.99
2017-08-05T04:57:38.644Z,99.99
2017-08-05T04:58:38.642Z,99.99
2017-08-05T04:59:38.635Z,99.99
2017-08-05T05:00:38.306Z,99.99
2017-08-05T05:01:38.303Z,99.99
2017-08-05T05:02:38.308Z,99.99
2017-08-05T05:03:38.612Z,99.99
2017-08-05T05:04:38.287Z,99.99
2017-08-05T05:05:38.290Z,99.99
2017-08-05T05:06:38.594Z,99.99
2017-08-05T05:07:38.594Z,99.99
2017-08-05T05:08:38.268Z,99.99
2017-08-05T05:09:38.262Z,99.99
2017-08-05T05:10:38.256Z,99.99
2017-08-05T05:11:38.571Z,99.99
2017-08-05T05:12:38.574Z,99.99
2017-08-05T05:13:38.562Z,99.99
2017-08-05T05:14:38.557Z,99.99
2017-08-05T05:15:38.552Z,99.99
2017-08-05T05:16:38.549Z,99.99
2017-08-05T05:17:38.224Z,99.99
2017-08-05T05:18:38.538Z,99.99
2017-08-05T05:19:38.540Z,99.99
2017-08-05T05:20:38.534Z,99.99
2017-08-05T05:21:38.524Z,99.99
2017-08-05T05:22:38.537Z,99.99
2017-08-05T05:23:38.514Z,99.86
2017-08-05T05:24:38.193Z,98.86
2017-08-05T05:25:38.191Z,98.86
2017-08-05T05:26:38.503Z,99.43
2017-08-05T05:27:38.496Z,98.66
2017-08-05T05:28:38.499Z,99.05
2017-08-05T05:29:38.488Z,99.52
2017-08-05T05:30:38.494Z,98.95
2017-08-05T05:31:38.158Z,98.09
2017-08-05T05:32:38.493Z,98.47
2017-08-05T05:33:38.469Z,97.71
2017-08-05T05:34:38.464Z,96.75
2017-08-05T05:35:38.461Z,96.08
2017-08-05T05:36:38.455Z,95.41
2017-08-05T05:37:38.494Z,94.69
2017-08-05T05:38:38.446Z,96.51
2017-08-05T05:39:38.465Z,95.27
2017-08-05T05:40:38.470Z,94.21
2017-08-05T05:41:38.456Z,93.83
2017-08-05T05:42:38.434Z,94.12
2017-08-05T05:43:38.427Z,93.16
2017-08-05T05:44:38.440Z,92.54
2017-08-05T05:45:38.418Z,91.49
2017-08-05T05:46:38.412Z,90.53
2017-08-05T05:47:38.089Z,86.98
2017-08-05T05:48:38.407Z,88.94
2017-08-05T05:49:38.448Z,88.75
2017-08-05T05:50:38.402Z,87.88
2017-08-05T05:51:38.402Z,88.08
2017-08-05T05:52:38.088Z,88.84
2017-08-05T05:53:38.386Z,88.65
2017-08-05T05:54:38.070Z,85.78
2017-08-05T05:55:38.383Z,86.25
2017-08-05T05:56:38.054Z,86.07
2017-08-05T05:57:38.054Z,86.93
2017-08-05T05:58:38.049Z,85.97
2017-08-05T05:59:38.044Z,85.97
2017-08-05T06:00:38.365Z,86.45
2017-08-05T06:01:38.376Z,86.5
2017-08-05T06:02:38.361Z,87.17
2017-08-05T06:03:38.351Z,86.6
2017-08-05T06:04:38.352Z,86.88
2017-08-05T06:05:38.022Z,87.08
2017-08-05T06:06:38.340Z,88.32
2017-08-05T06:07:38.343Z,88.61
2017-08-05T06:08:38.014Z,87.17
2017-08-05T06:09:38.350Z,87.17
2017-08-05T06:10:38.007Z,86.98
2017-08-05T06:11:38.345Z,88.23
2017-08-05T06:12:38.336Z,89.42
2017-08-05T06:13:38.316Z,88.84
2017-08-05T06:14:38.312Z,87.55
2017-08-05T06:15:38.310Z,87.02
2017-08-05T06:16:37.984Z,85.78
2017-08-05T06:17:37.981Z,84.63
2017-08-05T06:18:38.301Z,85.3
2017-08-05T06:19:38.295Z,85.88
2017-08-05T06:20:38.302Z,86.64
2017-08-05T06:21:38.291Z,87.6
2017-08-05T06:22:38.285Z,88.17
2017-08-05T06:23:37.971Z,87.12
2017-08-05T06:24:38.280Z,85.3
2017-08-05T06:25:38.276Z,84.05
2017-08-05T06:26:38.272Z,84.34
2017-08-05T06:27:38.269Z,84.25
2017-08-05T06:28:38.269Z,83.09
2017-08-05T06:29:38.264Z,82.81
2017-08-05T06:30:38.262Z,82.42
2017-08-05T06:31:38.257Z,82.81
2017-08-05T06:32:38.255Z,83.19
2017-08-05T06:33:38.269Z,83.52
2017-08-05T06:34:38.273Z,82.9
2017-08-05T06:35:38.246Z,82.46
2017-08-05T06:36:37.927Z,82.85
2017-08-05T06:37:38.237Z,83.33
2017-08-05T06:38:37.914Z,82.94
2017-08-05T06:39:38.273Z,82.94
2017-08-05T06:40:38.245Z,80.64
2017-08-05T06:41:38.226Z,80.78
2017-08-05T06:42:38.242Z,79.82
2017-08-05T06:43:38.219Z,78.19
2017-08-05T06:44:37.897Z,77.56
2017-08-05T06:45:38.238Z,76.12
2017-08-05T06:46:38.215Z,75.1
2017-08-05T06:47:38.213Z,73.02
2017-08-05T06:48:38.225Z,71.61
2017-08-05T06:49:37.884Z,70.65
2017-08-05T06:50:38.205Z,68.76
2017-08-05T06:51:38.432Z,67.35
2017-08-05T06:52:38.201Z,64.43
2017-08-05T06:53:38.222Z,63.31
2017-08-05T06:54:38.206Z,61.9
2017-08-05T06:55:38.208Z,60
2017-08-05T06:56:38.200Z,58.32
2017-08-05T06:57:37.871Z,54.39
2017-08-05T06:58:37.886Z,54.22
2017-08-05T06:59:38.217Z,51.86
2017-08-05T07:00:37.889Z,49.85
2017-08-05T07:01:38.202Z,46.51
2017-08-05T07:02:38.195Z,44.98
2017-08-05T07:03:38.195Z,43.64
2017-08-05T07:04:38.198Z,43.57
2017-08-05T07:05:38.212Z,41.84
2017-08-05T07:06:38.198Z,41.18
2017-08-05T07:07:38.200Z,40.42
2017-08-05T07:08:38.242Z,40.33
2017-08-05T07:09:38.216Z,38.31
2017-08-05T07:10:37.899Z,38.21
2017-08-05T07:11:38.209Z,38.21
2017-08-05T07:12:37.893Z,37.84
2017-08-05T07:13:38.219Z,37.35
2017-08-05T07:14:37.902Z,37.76
2017-08-05T07:15:37.903Z,36.32
2017-08-05T07:16:38.249Z,35.85
2017-08-05T07:17:38.233Z,35.46
2017-08-05T07:18:38.237Z,34.19
2017-08-05T07:19:38.256Z,36.43
2017-08-05T07:20:37.931Z,35.86
2017-08-05T07:21:37.930Z,35.18
2017-08-05T07:22:38.276Z,34.69
2017-08-05T07:23:38.259Z,34.21
2017-08-05T07:24:37.945Z,34.01
2017-08-05T07:25:37.958Z,32.96
2017-08-05T07:26:38.279Z,35
2017-08-05T07:27:38.285Z,34.81
2017-08-05T07:28:38.286Z,33.73
2017-08-05T07:29:38.294Z,32.09
2017-08-05T07:30:38.302Z,32.48
2017-08-05T07:31:37.992Z,31.51
2017-08-05T07:32:38.320Z,31.02
2017-08-05T07:33:38.006Z,33.67
2017-08-05T07:34:38.328Z,31.9
2017-08-05T07:35:38.333Z,33.73
2017-08-05T07:36:38.337Z,33.26
2017-08-05T07:37:38.346Z,31.7
2017-08-05T07:38:38.353Z,30.45
2017-08-05T07:39:38.362Z,30.55
2017-08-05T07:40:38.047Z,29.98
2017-08-05T07:41:38.057Z,31.64
2017-08-05T07:42:39.480Z,30.47
2017-08-05T07:43:38.385Z,29.88
2017-08-05T07:44:38.095Z,29.5
2017-08-05T07:45:38.400Z,29.99
2017-08-05T07:46:38.405Z,30.66
2017-08-05T07:47:38.092Z,28.91
2017-08-05T07:48:38.100Z,29.2
2017-08-05T07:49:38.425Z,29.59
2017-08-05T07:50:38.453Z,29.38
2017-08-05T07:51:38.441Z,29.77
2017-08-05T07:52:38.465Z,31.52
2017-08-05T07:53:38.135Z,31.43
2017-08-05T07:54:38.461Z,30.37
2017-08-05T07:55:38.466Z,30.66
2017-08-05T07:56:38.476Z,30.47
2017-08-05T07:57:38.480Z,30.18
2017-08-05T07:58:38.168Z,29.7
2017-08-05T07:59:38.520Z,30.96
2017-08-05T08:00:38.495Z,32.71
2017-08-05T08:01:38.500Z,33.79
2017-08-05T08:02:38.189Z,31.84
2017-08-05T08:03:38.191Z,32.89
2017-08-05T08:04:38.539Z,31.98
2017-08-05T08:05:38.201Z,33.41
2017-08-05T08:06:38.206Z,36
2017-08-05T08:07:38.228Z,38.5
2017-08-05T08:08:38.541Z,37.99
2017-08-05T08:09:38.542Z,41.18
2017-08-05T08:10:38.554Z,40.58
2017-08-05T08:11:38.551Z,42.3
2017-08-05T08:12:38.552Z,42.09
2017-08-05T08:13:38.237Z,42.94
2017-08-05T08:14:38.575Z,43.7
2017-08-05T08:15:38.264Z,44.26
2017-08-05T08:16:38.565Z,45.3
2017-08-05T08:17:38.574Z,47.24
2017-08-05T08:18:38.256Z,51.28
2017-08-05T08:19:38.578Z,50.7
2017-08-05T08:20:38.583Z,49.92
2017-08-05T08:21:38.264Z,49.99
2017-08-05T08:22:38.592Z,50.09
2017-08-05T08:23:38.590Z,52.02
2017-08-05T08:24:38.599Z,50.18
2017-08-05T08:25:38.599Z,47.96
2017-08-05T08:26:38.621Z,49.1
2017-08-05T08:27:38.606Z,50.65
2017-08-05T08:28:38.328Z,51.61
2017-08-05T08:29:38.616Z,51.61
2017-08-05T08:30:38.613Z,54.22
2017-08-05T08:31:38.612Z,53.25
2017-08-05T08:32:38.310Z,54.13
2017-08-05T08:33:38.622Z,54.41
2017-08-05T08:34:38.624Z,53.64
2017-08-05T08:35:38.626Z,51.64
2017-08-05T08:36:38.635Z,51.81
2017-08-05T08:37:38.312Z,52.39
2017-08-05T08:38:38.634Z,53.64
2017-08-05T08:39:38.635Z,53.74
2017-08-05T08:40:38.641Z,52
2017-08-05T08:41:38.643Z,51.81
2017-08-05T08:42:38.322Z,50.74
2017-08-05T08:43:38.646Z,50.16
2017-08-05T08:44:38.655Z,51.87
2017-08-05T08:45:38.649Z,53.55
2017-08-05T08:46:38.651Z,53.35
2017-08-05T08:47:38.649Z,53.74
2017-08-05T08:48:38.659Z,49.29
2017-08-05T08:49:38.355Z,53.16
2017-08-05T08:50:38.669Z,52.19
2017-08-05T08:51:38.662Z,51.32
2017-08-05T08:52:38.662Z,50.65
2017-08-05T08:53:38.669Z,51.9
2017-08-05T08:54:38.672Z,50.55
2017-08-05T08:55:38.350Z,50.55
2017-08-05T08:56:38.678Z,50.62
2017-08-05T08:57:38.698Z,51.97
2017-08-05T08:58:38.692Z,51.97
2017-08-05T08:59:38.678Z,49.75
2017-08-05T09:00:38.683Z,50.13
2017-08-05T09:01:38.732Z,48.42
2017-08-05T09:02:38.689Z,48.71
2017-08-05T09:03:38.717Z,48.54
2017-08-05T09:04:38.687Z,48.13
2017-08-05T09:05:38.708Z,48.83
2017-08-05T09:06:38.389Z,49.22
2017-08-05T09:07:38.698Z,48.74
2017-08-05T09:08:38.699Z,52.51
2017-08-05T09:09:38.701Z,50.18
2017-08-05T09:10:38.404Z,47.09
2017-08-05T09:11:38.720Z,48.18
2017-08-05T09:12:38.721Z,48.27
2017-08-05T09:13:38.726Z,48.66
2017-08-05T09:14:38.413Z,48.57
2017-08-05T09:15:38.713Z,49.24
2017-08-05T09:16:38.715Z,50.24
2017-08-05T09:17:38.934Z,51.01
2017-08-05T09:18:38.397Z,50.43
2017-08-05T09:19:38.726Z,47.06
2017-08-05T09:20:38.726Z,46.29
2017-08-05T09:21:38.743Z,46.39
2017-08-05T09:22:38.410Z,46.84
2017-08-05T09:23:38.423Z,48.79
2017-08-05T09:24:38.463Z,48.88
2017-08-05T09:25:38.747Z,47.24
2017-08-05T09:26:38.445Z,49.15
2017-08-05T09:27:39.719Z,50.21
2017-08-05T09:28:38.463Z,52.27
2017-08-05T09:29:38.760Z,51.5
2017-08-05T09:30:38.931Z,48.32
2017-08-05T09:31:38.768Z,50.52
2017-08-05T09:32:38.438Z,49.58
2017-08-05T09:33:38.761Z,47.55
2017-08-05T09:34:38.445Z,48.35
2017-08-05T09:35:38.445Z,47.09
2017-08-05T09:36:38.797Z,44.09
2017-08-05T09:37:38.792Z,43.5
2017-08-05T09:38:38.776Z,45.34
2017-08-05T09:39:38.776Z,45.92
2017-08-05T09:40:38.461Z,46
2017-08-05T09:41:38.462Z,48.81
2017-08-05T09:42:38.471Z,49.19
2017-08-05T09:43:38.806Z,48.88
2017-08-05T09:44:38.814Z,51.68
2017-08-05T09:45:38.804Z,51.01
2017-08-05T09:46:38.800Z,51.98
2017-08-05T09:47:38.806Z,49.58
2017-08-05T09:48:38.825Z,50.07
2017-08-05T09:49:38.815Z,47.84
2017-08-05T09:50:38.814Z,47.26
2017-08-05T09:51:38.833Z,46.94
2017-08-05T09:52:38.839Z,47.24
2017-08-05T09:53:38.824Z,44.13
2017-08-05T09:54:38.822Z,45.01
2017-08-05T09:55:38.847Z,45.68
2017-08-05T09:56:38.516Z,46.56
2017-08-05T09:57:38.829Z,48.88
2017-08-05T09:58:38.835Z,46.17
2017-08-05T09:59:38.839Z,46.46
2017-08-05T10:00:38.838Z,46.26
2017-08-05T10:01:38.847Z,46.75
2017-08-05T10:02:38.847Z,48.01
2017-08-05T10:03:38.847Z,47.04
2017-08-05T10:04:38.850Z,46.75
2017-08-05T10:05:38.857Z,46.75
2017-08-05T10:06:38.535Z,47.33
2017-08-05T10:07:38.861Z,48.01
2017-08-05T10:08:38.863Z,46.58
2017-08-05T10:09:38.546Z,46.77
2017-08-05T10:10:38.885Z,50.26
2017-08-05T10:11:38.872Z,49.12
2017-08-05T10:12:38.874Z,47.96
2017-08-05T10:13:38.559Z,47.19
2017-08-05T10:14:38.574Z,46.41
2017-08-05T10:15:38.575Z,47.67
2017-08-05T10:16:38.892Z,46.97
2017-08-05T10:17:38.579Z,48.42
2017-08-05T10:18:38.584Z,47.84
2017-08-05T10:19:38.899Z,50.19
2017-08-05T10:20:38.908Z,46.7
2017-08-05T10:21:38.907Z,48.93
2017-08-05T10:22:38.908Z,47.19
2017-08-05T10:23:38.922Z,44.96
2017-08-05T10:24:38.910Z,47.28
2017-08-05T10:25:38.925Z,45.47
2017-08-05T10:26:38.599Z,44.78
2017-08-05T10:27:38.921Z,45.47
2017-08-05T10:28:38.920Z,46.53
2017-08-05T10:29:38.929Z,46.04
2017-08-05T10:30:38.929Z,46.82
2017-08-05T10:31:38.610Z,46.31
2017-08-05T10:32:38.954Z,47.98
2017-08-05T10:33:38.938Z,48.66
2017-08-05T10:34:38.643Z,47.5
2017-08-05T10:35:38.945Z,46.72
2017-08-05T10:36:38.961Z,46.53
2017-08-05T10:37:38.952Z,47.11
2017-08-05T10:38:38.640Z,45.65
2017-08-05T10:39:38.975Z,43.82
2017-08-05T10:40:38.962Z,43.62
2017-08-05T10:41:38.973Z,43.52
2017-08-05T10:42:38.648Z,41.97
2017-08-05T10:43:38.972Z,42.92
2017-08-05T10:44:38.974Z,44.57
2017-08-05T10:45:38.982Z,43.99
2017-08-05T10:46:38.979Z,46.22
2017-08-05T10:47:38.989Z,45.15
2017-08-05T10:48:38.999Z,44.18
2017-08-05T10:49:38.674Z,44.06
2017-08-05T10:50:38.674Z,44.93
2017-08-05T10:51:38.999Z,45.71
2017-08-05T10:52:39.000Z,46.08
2017-08-05T10:53:39.013Z,47.36
2017-08-05T10:54:38.685Z,47.16
2017-08-05T10:55:39.010Z,47.26
2017-08-05T10:56:39.029Z,45.13
2017-08-05T10:57:39.029Z,46.51
2017-08-05T10:58:38.699Z,44.45
2017-08-05T10:59:39.030Z,45.71
2017-08-05T11:00:39.054Z,46.46
2017-08-05T11:01:39.028Z,47.04
2017-08-05T11:02:38.709Z,46.84
2017-08-05T11:03:39.033Z,47.41
2017-08-05T11:04:39.041Z,49.34
2017-08-05T11:05:38.717Z,47.02
2017-08-05T11:06:39.052Z,47.5
2017-08-05T11:07:39.045Z,48.39
2017-08-05T11:08:39.066Z,49.95
2017-08-05T11:09:39.054Z,50.72
2017-08-05T11:10:39.050Z,48.39
2017-08-05T11:11:39.063Z,46.97
2017-08-05T11:12:39.071Z,48.61
2017-08-05T11:13:39.064Z,45.98
2017-08-05T11:14:39.063Z,47.26
2017-08-05T11:15:39.073Z,50.35
2017-08-05T11:16:39.066Z,47.45
2017-08-05T11:17:39.071Z,48.3
2017-08-05T11:18:38.772Z,48.32
2017-08-05T11:19:39.076Z,48.03
2017-08-05T11:20:39.090Z,48.03
2017-08-05T11:21:39.095Z,46.77
2017-08-05T11:22:38.762Z,46.29
2017-08-05T11:23:39.087Z,47.26
2017-08-05T11:24:38.769Z,47.81
2017-08-05T11:25:39.093Z,47.74
2017-08-05T11:26:38.773Z,47.16
2017-08-05T11:27:38.776Z,44.84
2017-08-05T11:28:39.107Z,47.26
2017-08-05T11:29:39.103Z,46.87
2017-08-05T11:30:38.783Z,47.06
2017-08-05T11:31:38.788Z,48.81
2017-08-05T11:32:39.110Z,46.77
2017-08-05T11:33:38.792Z,45.71
2017-08-05T11:34:38.802Z,45.42
2017-08-05T11:35:39.218Z,45.03
2017-08-05T11:36:39.265Z,48.03
2017-08-05T11:37:39.120Z,44.96
2017-08-05T11:38:39.126Z,47.19
2017-08-05T11:39:38.805Z,46.58
2017-08-05T11:40:38.818Z,47.45
2017-08-05T11:41:38.819Z,46.19
2017-08-05T11:42:39.131Z,47.04
2017-08-05T11:43:38.841Z,47.52
2017-08-05T11:44:39.139Z,46.66
2017-08-05T11:45:39.405Z,47.11
2017-08-05T11:46:39.143Z,47.79
2017-08-05T11:47:38.827Z,49.73
2017-08-05T11:48:39.148Z,48.86
2017-08-05T11:49:39.167Z,49.24
2017-08-05T11:50:39.167Z,48.66
2017-08-05T11:51:38.845Z,47.24
2017-08-05T11:52:39.160Z,47.43
2017-08-05T11:53:38.839Z,48.79
2017-08-05T11:54:38.862Z,47.33
2017-08-05T11:55:39.167Z,48.79
2017-08-05T11:56:38.856Z,47.79
2017-08-05T11:57:39.173Z,48.3
2017-08-05T11:58:39.183Z,47.81
2017-08-05T11:59:39.174Z,49.75
2017-08-05T12:00:39.177Z,50.82
2017-08-05T12:01:39.178Z,47.84
2017-08-05T12:02:39.182Z,47.84
2017-08-05T12:03:38.875Z,47.28
2017-08-05T12:04:38.867Z,47.77
2017-08-05T12:05:38.888Z,46.92
2017-08-05T12:06:38.879Z,46.33
2017-08-05T12:07:38.877Z,44.98
2017-08-05T12:08:38.877Z,46.26
2017-08-05T12:09:38.880Z,44.9
2017-08-05T12:10:38.884Z,46.84
2017-08-05T12:11:39.252Z,46.28
2017-08-05T12:12:39.226Z,45.31
2017-08-05T12:13:39.218Z,43.18
2017-08-05T12:14:38.898Z,44.24
2017-08-05T12:15:39.222Z,44.54
2017-08-05T12:16:38.904Z,45.51
2017-08-05T12:17:38.908Z,44.24
2017-08-05T12:18:38.914Z,45.12
2017-08-05T12:19:39.232Z,46.58
2017-08-05T12:20:39.238Z,46.6
2017-08-05T12:21:39.241Z,45.72
2017-08-05T12:22:38.928Z,46.11
2017-08-05T12:23:39.252Z,44.27
2017-08-05T12:24:39.255Z,43.59
2017-08-05T12:25:39.261Z,43.98
2017-08-05T12:26:39.263Z,45.34
2017-08-05T12:27:38.947Z,47.06
2017-08-05T12:28:39.288Z,49
2017-08-05T12:29:38.955Z,49.58
2017-08-05T12:30:39.279Z,48.71
2017-08-05T12:31:38.969Z,47.06
2017-08-05T12:32:39.290Z,48.03
2017-08-05T12:33:38.966Z,47.72
2017-08-05T12:34:39.293Z,48
2017-08-05T12:35:38.981Z,47.33
2017-08-05T12:36:39.313Z,49.24
2017-08-05T12:37:38.983Z,49.34
2017-08-05T12:38:39.309Z,48.95
2017-08-05T12:39:39.332Z,50.41
2017-08-05T12:40:39.338Z,48.57
2017-08-05T12:41:39.323Z,49.15
2017-08-05T12:42:39.322Z,49.05
2017-08-05T12:43:39.007Z,50.6
2017-08-05T12:44:39.349Z,49.73
2017-08-05T12:45:39.334Z,49.41
2017-08-05T12:46:39.015Z,51.74
2017-08-05T12:47:39.345Z,51.64
2017-08-05T12:48:39.392Z,51.64
2017-08-05T12:49:39.361Z,51.84
2017-08-05T12:50:39.035Z,51.25
2017-08-05T12:51:39.356Z,49.99
2017-08-05T12:52:39.045Z,50.5
2017-08-05T12:53:39.366Z,49.44
2017-08-05T12:54:39.367Z,50.79
2017-08-05T12:55:39.056Z,51.47